Time;durP1;ratioP1;P1;durP2;ratioP2;P2;SDS_P1;SDS_P2;PMS_P1;PMS_P2;Temp;Humidity;BMP_temperature;BMP_pressure;BME280_temperature;BME280_humidity;BME280_pressure;Samples;Min_cycle;Max_cycle;Signal;HPM_P1;HPM_P2
2023/06/30 00:00:12;;;;;;;3.45;2.67;;;27.30;96.70;;;;;;5011313;28;20033;-69
2023/06/30 00:02:47;;;;;;;2.53;2.28;;;27.30;96.70;;;;;;5009415;28;20557;-69
2023/06/30 00:05:18;;;;;;;4.13;2.80;;;27.30;96.70;;;;;;5024058;28;20528;-69
2023/06/30 00:07:46;;;;;;;3.17;2.55;;;27.30;96.70;;;;;;5024309;28;20145;-69
2023/06/30 00:10:14;;;;;;;4.03;2.60;;;27.30;96.70;;;;;;5025792;28;20082;-70
2023/06/30 00:12:42;;;;;;;2.63;2.30;;;27.30;96.70;;;;;;5007761;28;20084;-69
2023/06/30 00:15:10;;;;;;;4.20;2.22;;;27.30;96.70;;;;;;5026196;28;20053;-69
2023/06/30 00:17:39;;;;;;;2.83;2.50;;;27.30;96.70;;;;;;4997616;28;20558;-70
2023/06/30 00:20:08;;;;;;;4.72;2.80;;;27.30;96.70;;;;;;5017585;28;20115;-70
2023/06/30 00:22:37;;;;;;;3.05;2.42;;;27.30;96.70;;;;;;5001929;28;20062;-68
2023/06/30 00:28:41;;;;;;;3.83;2.55;;;27.20;96.70;;;;;;5021473;28;20049;-68
2023/06/30 00:31:09;;;;;;;5.32;2.90;;;27.20;96.70;;;;;;5001466;28;20503;-68
2023/06/30 00:33:37;;;;;;;4.18;2.58;;;27.00;96.70;;;;;;5005981;28;20057;-68
2023/06/30 00:36:06;;;;;;;4.53;2.60;;;27.00;96.70;;;;;;5006129;28;20139;-68
2023/06/30 00:38:36;;;;;;;3.35;2.60;;;27.00;96.70;;;;;;5002987;28;20072;-68
2023/06/30 00:41:04;;;;;;;3.47;2.35;;;27.00;96.70;;;;;;5023297;28;20063;-68
2023/06/30 00:43:33;;;;;;;3.85;2.63;;;26.90;96.70;;;;;;5025327;28;20471;-68
2023/06/30 00:46:03;;;;;;;3.38;2.70;;;26.80;96.70;;;;;;5007555;28;20086;-68
2023/06/30 00:48:31;;;;;;;8.00;3.15;;;26.80;96.70;;;;;;5003314;28;20052;-68
2023/06/30 00:59:26;;;;;;;5.70;3.03;;;26.90;96.70;;;;;;5005734;28;20148;-68
2023/06/30 01:02:03;;;;;;;3.13;2.80;;;26.80;96.70;;;;;;4992465;28;20487;-68
2023/06/30 01:04:37;;;;;;;4.60;3.08;;;26.70;96.70;;;;;;5006801;28;20263;-68
2023/06/30 01:07:13;;;;;;;3.70;2.90;;;26.80;96.70;;;;;;4986388;28;20491;-68
2023/06/30 01:09:48;;;;;;;5.15;2.75;;;26.80;96.70;;;;;;4999440;28;20057;-68
2023/06/30 01:12:17;;;;;;;3.43;2.80;;;26.90;96.70;;;;;;5023776;28;20111;-70
2023/06/30 01:14:48;;;;;;;3.65;2.63;;;26.90;96.70;;;;;;4998618;28;20316;-68
2023/06/30 01:17:19;;;;;;;3.30;2.33;;;26.90;96.70;;;;;;5005560;28;20111;-68
2023/06/30 01:28:14;;;;;;;6.50;3.00;;;26.80;96.70;;;;;;5016999;28;20155;-68
2023/06/30 01:30:43;;;;;;;4.00;2.53;;;26.60;96.70;;;;;;5022889;28;20552;-68
2023/06/30 01:33:12;;;;;;;3.97;2.65;;;26.60;96.70;;;;;;4998831;28;20041;-68
2023/06/30 01:35:40;;;;;;;3.88;2.83;;;26.70;96.70;;;;;;4977619;28;20045;-68
2023/06/30 02:03:29;;;;;;;3.90;2.60;;;26.40;96.70;;;;;;5001022;28;20546;-68
2023/06/30 02:05:57;;;;;;;4.53;2.55;;;26.30;96.70;;;;;;4978972;28;20061;-68
2023/06/30 02:08:26;;;;;;;4.00;2.65;;;26.30;96.70;;;;;;4997851;28;20048;-68
2023/06/30 02:10:54;;;;;;;5.20;2.88;;;26.40;96.70;;;;;;4975946;28;20126;-68
2023/06/30 02:55:02;;;;;;;3.25;2.50;;;25.90;96.70;;;;;;4979270;28;20038;-68
2023/06/30 02:57:31;;;;;;;4.53;2.67;;;25.80;96.70;;;;;;4984325;28;20145;-68
2023/06/30 03:00:00;;;;;;;4.30;3.00;;;25.70;96.70;;;;;;4995681;28;20042;-68
2023/06/30 03:31:36;;;;;;;5.28;2.88;;;25.60;96.70;;;;;;4972226;28;20053;-68
2023/06/30 03:34:04;;;;;;;5.05;2.88;;;25.70;96.70;;;;;;4966689;28;20051;-68
2023/06/30 03:36:32;;;;;;;5.03;2.55;;;25.60;96.70;;;;;;4964253;28;20117;-68
2023/06/30 04:04:22;;;;;;;5.60;3.20;;;25.10;96.70;;;;;;4972231;28;20053;-68
2023/06/30 04:06:50;;;;;;;6.78;3.13;;;25.30;96.70;;;;;;4976183;28;20134;-68
2023/06/30 04:09:18;;;;;;;4.22;2.97;;;25.50;96.70;;;;;;4969978;28;20106;-68
2023/06/30 04:11:48;;;;;;;5.55;2.63;;;25.40;96.70;;;;;;4961727;28;20055;-68
2023/06/30 04:15:11;;;;;;;3.30;2.65;;;25.40;96.70;;;;;;4963334;28;20039;-68
2023/06/30 04:17:39;;;;;;;4.68;3.38;;;25.30;96.70;;;;;;4955079;28;20039;-68
2023/06/30 04:20:10;;;;;;;4.65;2.72;;;25.30;96.70;;;;;;4977923;28;20039;-68
2023/06/30 04:22:38;;;;;;;3.47;2.38;;;25.20;96.70;;;;;;4972610;28;20137;-68
2023/06/30 04:25:07;;;;;;;5.10;2.90;;;25.30;96.70;;;;;;4976177;28;20039;-68
2023/06/30 04:27:35;;;;;;;5.63;3.13;;;25.40;96.70;;;;;;4999342;28;20469;-68
2023/06/30 04:30:04;;;;;;;3.90;2.80;;;25.40;96.70;;;;;;4992256;28;20109;-68
2023/06/30 04:32:32;;;;;;;5.95;3.00;;;25.50;96.70;;;;;;4992565;28;20046;-68
2023/06/30 04:35:00;;;;;;;4.55;3.10;;;25.40;96.70;;;;;;5000479;28;20525;-68
2023/06/30 04:37:29;;;;;;;5.10;3.40;;;25.60;96.70;;;;;;5009917;28;20065;-68
2023/06/30 04:39:58;;;;;;;5.57;3.08;;;25.60;96.70;;;;;;5002113;28;20037;-68
2023/06/30 04:42:29;;;;;;;6.50;3.58;;;25.70;96.70;;;;;;5002652;28;20053;-68
2023/06/30 04:44:57;;;;;;;4.18;2.78;;;25.80;96.70;;;;;;5004018;28;20614;-68
2023/06/30 04:47:25;;;;;;;4.13;2.80;;;25.70;96.70;;;;;;5001666;28;20053;-68
2023/06/30 04:49:53;;;;;;;3.72;2.92;;;25.80;96.70;;;;;;4995969;28;20586;-68
2023/06/30 04:52:21;;;;;;;4.65;3.35;;;25.80;96.70;;;;;;5001286;28;20096;-68
2023/06/30 04:54:50;;;;;;;5.15;3.58;;;25.80;96.70;;;;;;5000500;28;20076;-68
2023/06/30 04:57:18;;;;;;;4.05;2.95;;;25.70;96.70;;;;;;5003446;28;20037;-68
2023/06/30 05:03:52;;;;;;;5.47;3.15;;;25.60;96.70;;;;;;4990422;28;20069;-67
2023/06/30 05:06:21;;;;;;;3.70;3.15;;;25.70;96.70;;;;;;5002024;28;20507;-68
2023/06/30 05:08:49;;;;;;;8.25;2.78;;;25.80;96.70;;;;;;4988017;28;20042;-68
2023/06/30 05:11:18;;;;;;;4.20;3.10;;;25.80;96.70;;;;;;5003870;28;20057;-68
2023/06/30 05:13:46;;;;;;;7.00;3.30;;;25.80;96.70;;;;;;5004272;28;20046;-68
2023/06/30 05:16:14;;;;;;;5.85;3.50;;;25.70;96.70;;;;;;4997997;28;20551;-67
2023/06/30 05:18:42;;;;;;;4.88;3.55;;;25.70;96.70;;;;;;4995491;28;20072;-67
2023/06/30 05:21:10;;;;;;;3.65;3.35;;;25.70;96.70;;;;;;4997205;28;20047;-68
2023/06/30 05:23:37;;;;;;;4.97;3.22;;;25.60;96.70;;;;;;4986404;28;20046;-68
2023/06/30 05:26:06;;;;;;;4.40;3.70;;;25.60;96.70;;;;;;4992033;28;20073;-67
2023/06/30 05:28:36;;;;;;;5.53;3.70;;;25.50;96.70;;;;;;4999344;28;20709;-68
2023/06/30 05:31:05;;;;;;;5.65;3.65;;;25.50;96.70;;;;;;5003513;28;20054;-67
2023/06/30 05:37:59;;;;;;;6.97;3.85;;;25.50;96.70;;;;;;4990413;28;20165;-68
2023/06/30 05:40:28;;;;;;;6.28;3.80;;;25.40;96.70;;;;;;4988396;28;20145;-68
2023/06/30 05:42:56;;;;;;;6.25;4.03;;;25.40;96.70;;;;;;4980845;28;20507;-68
2023/06/30 05:45:25;;;;;;;10.77;4.30;;;25.30;96.70;;;;;;5005143;28;20100;-67
2023/06/30 05:47:53;;;;;;;9.77;3.80;;;25.20;96.70;;;;;;4984454;28;20507;-68
2023/06/30 05:50:22;;;;;;;7.45;4.68;;;25.30;96.70;;;;;;5002703;28;20458;-67
2023/06/30 05:52:50;;;;;;;7.88;3.92;;;25.10;96.70;;;;;;4992287;28;20104;-68
2023/06/30 05:55:18;;;;;;;7.47;3.88;;;25.20;96.70;;;;;;4994243;28;20499;-68
2023/06/30 05:57:47;;;;;;;6.40;3.88;;;25.30;96.70;;;;;;4985486;28;20090;-68
2023/06/30 06:00:16;;;;;;;5.07;3.67;;;25.30;96.70;;;;;;4996290;28;20054;-67
2023/06/30 06:02:45;;;;;;;8.05;4.07;;;25.40;96.70;;;;;;5000177;28;20038;-67
2023/06/30 06:05:13;;;;;;;8.30;4.30;;;25.50;96.70;;;;;;5003637;28;20124;-67
2023/06/30 06:07:41;;;;;;;6.72;4.38;;;25.40;96.70;;;;;;4996908;28;20050;-67
2023/06/30 06:10:10;;;;;;;11.10;6.53;;;25.40;96.70;;;;;;4981273;28;20046;-68
2023/06/30 06:12:39;;;;;;;15.32;6.60;;;25.00;96.70;;;;;;5003547;28;20054;-67
2023/06/30 06:15:08;;;;;;;8.82;6.00;;;24.80;96.70;;;;;;5004551;28;20096;-68
2023/06/30 06:17:36;;;;;;;13.63;5.70;;;24.70;96.70;;;;;;4995928;28;20096;-66
2023/06/30 06:20:06;;;;;;;8.75;5.70;;;24.70;96.70;;;;;;4987835;28;20069;-68
2023/06/30 06:22:34;;;;;;;11.10;5.72;;;24.80;96.70;;;;;;4998782;28;20516;-68
2023/06/30 06:25:02;;;;;;;8.50;5.18;;;25.00;96.70;;;;;;4995207;28;20044;-67
2023/06/30 06:27:34;;;;;;;9.02;4.75;;;25.10;96.70;;;;;;5003756;28;20085;-67
2023/06/30 06:30:02;;;;;;;14.15;6.55;;;25.30;96.70;;;;;;4984585;28;20051;-67
2023/06/30 06:32:33;;;;;;;10.10;6.13;;;25.40;96.70;;;;;;4966544;28;20061;-67
2023/06/30 06:35:01;;;;;;;13.32;5.82;;;25.40;96.70;;;;;;4982142;28;20069;-67
2023/06/30 06:37:30;;;;;;;11.70;6.30;;;25.40;96.70;;;;;;4983151;28;20046;-67
2023/06/30 06:40:00;;;;;;;12.57;6.10;;;25.40;96.70;;;;;;4969036;28;20069;-67
2023/06/30 06:42:29;;;;;;;12.48;6.20;;;25.40;96.70;;;;;;4973277;28;20050;-67
2023/06/30 06:44:57;;;;;;;13.48;7.00;;;25.40;96.70;;;;;;4976573;28;20049;-67
2023/06/30 06:48:02;;;;;;;13.27;6.05;;;25.30;96.70;;;;;;4983885;28;20081;-68
2023/06/30 06:50:30;;;;;;;11.38;6.28;;;25.20;96.70;;;;;;4982759;28;20054;-68
2023/06/30 06:52:59;;;;;;;10.25;6.70;;;25.30;96.70;;;;;;4971605;28;20039;-69
2023/06/30 06:55:27;;;;;;;15.93;6.35;;;25.20;96.70;;;;;;4982593;28;20058;-68
2023/06/30 06:57:55;;;;;;;12.13;5.55;;;25.20;96.70;;;;;;4957963;28;20081;-69
2023/06/30 07:00:23;;;;;;;8.48;5.15;;;25.00;96.70;;;;;;4963247;28;20574;-69
2023/06/30 07:02:51;;;;;;;9.80;6.00;;;25.00;96.70;;;;;;4973755;28;20046;-69
2023/06/30 07:05:20;;;;;;;8.05;5.07;;;25.10;96.70;;;;;;4997454;28;20046;-69
2023/06/30 07:07:48;;;;;;;10.07;4.93;;;25.30;96.70;;;;;;4984086;28;20465;-69
2023/06/30 07:10:17;;;;;;;8.90;5.00;;;25.40;96.70;;;;;;4982603;28;20528;-68
2023/06/30 07:12:45;;;;;;;11.07;5.55;;;25.40;96.70;;;;;;4972694;28;20034;-69
2023/06/30 07:15:13;;;;;;;9.93;5.68;;;25.40;96.70;;;;;;4974126;28;20514;-69
2023/06/30 07:17:41;;;;;;;10.20;6.03;;;25.30;96.70;;;;;;4968717;28;20491;-68
2023/06/30 07:20:11;;;;;;;11.82;6.57;;;25.40;96.70;;;;;;4976507;28;20046;-69
2023/06/30 07:22:39;;;;;;;10.90;6.65;;;25.40;96.70;;;;;;4989338;28;20048;-69
2023/06/30 07:25:07;;;;;;;10.50;6.32;;;25.20;96.70;;;;;;4968434;28;20096;-69
2023/06/30 07:27:38;;;;;;;12.88;6.32;;;25.20;96.70;;;;;;4982448;28;20057;-69
2023/06/30 07:30:07;;;;;;;10.18;5.72;;;25.20;96.70;;;;;;5001532;28;20466;-68
2023/06/30 07:32:35;;;;;;;10.38;6.43;;;25.20;96.70;;;;;;5005027;28;20049;-69
2023/06/30 07:35:04;;;;;;;12.48;6.28;;;25.20;96.70;;;;;;5022862;28;20055;-68
2023/06/30 07:37:32;;;;;;;10.40;6.57;;;25.20;96.70;;;;;;5004994;28;20483;-68
2023/06/30 07:40:00;;;;;;;8.63;6.40;;;25.20;96.70;;;;;;5016683;28;20159;-68
2023/06/30 07:42:44;;;;;;;11.82;6.75;;;25.10;96.70;;;;;;5020736;28;20041;-69
2023/06/30 07:45:13;;;;;;;10.88;6.32;;;25.10;96.70;;;;;;5022826;28;20121;-69
2023/06/30 07:47:42;;;;;;;12.95;7.35;;;25.10;96.70;;;;;;5007020;28;20076;-69
2023/06/30 07:50:12;;;;;;;13.15;7.82;;;25.10;96.70;;;;;;5018062;28;20048;-69
2023/06/30 07:52:45;;;;;;;14.60;7.97;;;25.20;96.70;;;;;;5022365;28;20041;-69
2023/06/30 07:55:15;;;;;;;17.70;8.02;;;25.10;96.70;;;;;;5001837;28;20140;-68
2023/06/30 07:57:47;;;;;;;12.45;6.70;;;24.30;96.70;;;;;;5004823;28;20046;-69
2023/06/30 08:00:18;;;;;;;6.90;3.58;;;23.20;96.70;;;;;;5004956;28;20061;-67
2023/06/30 08:02:48;;;;;;;6.57;2.88;;;22.20;96.70;;;;;;5023597;28;20041;-71
2023/06/30 08:05:17;;;;;;;8.18;2.95;;;21.30;96.70;;;;;;4996614;28;20670;-68
2023/06/30 08:07:46;;;;;;;7.82;3.38;;;20.70;96.70;;;;;;5015596;28;20507;-68
2023/06/30 08:10:18;;;;;;;10.05;3.47;;;20.50;96.70;;;;;;5012859;28;20479;-69
2023/06/30 08:12:48;;;;;;;6.85;2.95;;;20.50;96.70;;;;;;4998211;28;20076;-68
2023/06/30 08:15:16;;;;;;;4.63;2.60;;;20.50;96.70;;;;;;4998755;28;20049;-70
2023/06/30 08:17:44;;;;;;;6.95;2.30;;;20.50;96.70;;;;;;4984535;28;20042;-69
2023/06/30 08:20:24;;;;;;;3.72;2.20;;;20.50;96.70;;;;;;5000913;28;20072;-69
2023/06/30 08:22:53;;;;;;;4.60;2.58;;;20.60;96.70;;;;;;5003756;28;20402;-69
2023/06/30 08:25:23;;;;;;;3.65;2.38;;;20.70;96.70;;;;;;5018222;28;20072;-69
2023/06/30 08:27:53;;;;;;;4.68;2.28;;;20.80;96.70;;;;;;5025677;28;20103;-69
2023/06/30 08:30:21;;;;;;;4.18;2.47;;;21.00;96.70;;;;;;5007139;28;20062;-69
2023/06/30 08:32:54;;;;;;;3.85;2.22;;;21.30;96.70;;;;;;5021032;28;20640;-69
2023/06/30 08:35:24;;;;;;;3.35;2.47;;;21.30;96.70;;;;;;5025413;28;20046;-69
2023/06/30 08:37:52;;;;;;;4.07;2.28;;;21.60;96.70;;;;;;5024575;28;20507;-69
2023/06/30 08:40:25;;;;;;;4.55;2.63;;;21.90;96.70;;;;;;5013807;28;20404;-69
2023/06/30 08:42:58;;;;;;;3.65;2.28;;;22.20;96.70;;;;;;5003338;28;20111;-69
2023/06/30 08:45:27;;;;;;;4.03;2.28;;;22.40;96.70;;;;;;5001286;28;20119;-69
2023/06/30 08:47:59;;;;;;;4.90;2.88;;;22.60;96.70;;;;;;5020092;28;20095;-69
2023/06/30 08:50:28;;;;;;;5.38;2.85;;;22.70;96.70;;;;;;5016905;28;20046;-69
2023/06/30 08:52:57;;;;;;;5.20;2.75;;;22.80;96.70;;;;;;4984944;28;20037;-69
2023/06/30 08:55:26;;;;;;;4.93;2.53;;;23.00;96.70;;;;;;5008129;28;20056;-69
2023/06/30 08:57:56;;;;;;;5.55;2.63;;;23.00;96.70;;;;;;5025501;28;20148;-70
2023/06/30 09:00:31;;;;;;;4.72;2.78;;;23.10;96.70;;;;;;5014584;28;20040;-69
2023/06/30 09:03:04;;;;;;;5.75;2.75;;;23.20;96.70;;;;;;5012821;28;20092;-70
2023/06/30 09:05:38;;;;;;;6.72;3.58;;;23.40;96.70;;;;;;5004927;28;20108;-69
2023/06/30 09:08:14;;;;;;;10.13;4.25;;;23.40;96.70;;;;;;5022314;28;20041;-70
2023/06/30 09:10:43;;;;;;;8.07;3.43;;;23.40;96.70;;;;;;5013265;28;20072;-69
2023/06/30 09:13:14;;;;;;;6.53;3.53;;;23.40;96.70;;;;;;4992920;28;20042;-69
2023/06/30 09:15:43;;;;;;;9.38;3.83;;;23.50;96.70;;;;;;5015285;28;20396;-69
2023/06/30 09:18:12;;;;;;;5.82;3.42;;;23.60;96.70;;;;;;5022835;28;20045;-69
2023/06/30 09:20:40;;;;;;;7.95;3.30;;;23.60;96.70;;;;;;4997874;28;20451;-69
2023/06/30 09:23:09;;;;;;;4.85;3.42;;;23.60;96.70;;;;;;5006742;28;20041;-69
2023/06/30 09:25:39;;;;;;;5.85;3.35;;;23.70;96.70;;;;;;5006157;28;20809;-69
2023/06/30 09:28:14;;;;;;;6.93;3.35;;;23.80;96.70;;;;;;5005476;28;20727;-69
2023/06/30 09:30:46;;;;;;;5.20;2.92;;;23.70;96.70;;;;;;5011041;28;20063;-69
2023/06/30 09:33:15;;;;;;;3.50;2.40;;;23.70;96.70;;;;;;5021217;28;20510;-69
2023/06/30 09:35:45;;;;;;;6.28;3.50;;;23.60;96.70;;;;;;5023667;28;20073;-69
2023/06/30 09:38:15;;;;;;;3.45;2.58;;;23.70;96.70;;;;;;5020511;28;20547;-69
2023/06/30 09:40:44;;;;;;;4.00;2.67;;;23.80;96.70;;;;;;5013518;28;20431;-69
2023/06/30 09:43:18;;;;;;;4.55;3.22;;;23.90;96.70;;;;;;5017828;28;20754;-69
2023/06/30 09:45:52;;;;;;;5.25;2.88;;;24.00;96.70;;;;;;5024443;28;20052;-69
2023/06/30 09:48:21;;;;;;;5.05;2.70;;;24.10;96.70;;;;;;5021881;28;20157;-69
2023/06/30 09:50:52;;;;;;;4.38;2.97;;;24.00;96.70;;;;;;5024060;28;20888;-69
2023/06/30 09:53:20;;;;;;;4.13;3.08;;;24.20;96.70;;;;;;5006386;28;20049;-69
2023/06/30 09:55:50;;;;;;;5.90;3.60;;;24.30;96.70;;;;;;5000892;28;20048;-69
2023/06/30 09:58:20;;;;;;;4.43;3.10;;;24.40;96.70;;;;;;5024386;28;20045;-69
2023/06/30 10:00:51;;;;;;;3.72;3.00;;;24.40;96.70;;;;;;5001257;28;20049;-70
2023/06/30 10:03:19;;;;;;;4.07;2.75;;;24.50;96.70;;;;;;5023112;28;20410;-70
2023/06/30 10:05:48;;;;;;;5.28;3.45;;;24.60;96.70;;;;;;5022825;28;20650;-69
2023/06/30 10:08:20;;;;;;;6.00;3.30;;;24.70;96.70;;;;;;5018210;28;20053;-69
2023/06/30 10:10:55;;;;;;;5.95;3.40;;;24.70;96.70;;;;;;5024359;28;20491;-70
2023/06/30 10:13:26;;;;;;;7.60;4.35;;;24.80;96.70;;;;;;5004734;28;20177;-70
2023/06/30 10:15:55;;;;;;;4.88;3.17;;;25.00;96.70;;;;;;5022235;28;20053;-69
2023/06/30 10:18:24;;;;;;;4.32;2.83;;;25.00;96.70;;;;;;5021363;28;20396;-69
2023/06/30 10:20:55;;;;;;;5.03;3.05;;;25.20;96.70;;;;;;5019022;28;20046;-69
2023/06/30 10:23:25;;;;;;;4.43;2.90;;;25.30;96.70;;;;;;5022240;28;20446;-69
2023/06/30 10:25:54;;;;;;;4.22;3.17;;;25.40;96.70;;;;;;5004840;28;20053;-70
2023/06/30 10:28:24;;;;;;;5.25;3.20;;;25.50;96.70;;;;;;5004888;28;20049;-69
2023/06/30 10:30:53;;;;;;;5.00;2.85;;;25.70;96.70;;;;;;5017076;28;20119;-70
2023/06/30 10:33:22;;;;;;;4.03;2.90;;;25.70;96.70;;;;;;5021404;28;20046;-69
2023/06/30 10:35:52;;;;;;;4.03;3.00;;;25.90;96.70;;;;;;4999948;28;20443;-69
2023/06/30 10:38:20;;;;;;;3.63;2.70;;;26.00;96.70;;;;;;4987159;28;20050;-70
2023/06/30 10:40:48;;;;;;;2.65;2.33;;;26.10;96.70;;;;;;5022733;28;20049;-69
2023/06/30 10:43:17;;;;;;;3.85;2.42;;;26.20;96.70;;;;;;5019542;28;20076;-69
2023/06/30 10:46:11;;;;;;;4.13;2.50;;;26.30;96.70;;;;;;5005627;28;20037;-70
2023/06/30 10:48:40;;;;;;;3.63;2.10;;;26.10;96.70;;;;;;4986236;28;20135;-69
2023/06/30 10:51:12;;;;;;;3.17;2.17;;;26.20;96.70;;;;;;5005595;28;20052;-69
2023/06/30 10:53:43;;;;;;;3.55;2.58;;;26.20;96.70;;;;;;5006348;28;20041;-69
2023/06/30 10:56:11;;;;;;;4.07;2.92;;;26.50;96.70;;;;;;5023704;28;20044;-69
2023/06/30 10:58:45;;;;;;;4.38;2.80;;;26.50;96.70;;;;;;5022860;28;20042;-69
2023/06/30 11:01:15;;;;;;;3.30;2.60;;;26.50;96.70;;;;;;5022357;28;20116;-69
2023/06/30 11:04:11;;;;;;;3.92;3.00;;;26.50;96.70;;;;;;4986889;28;20049;-69
2023/06/30 11:06:45;;;;;;;3.45;2.80;;;26.80;96.70;;;;;;5005519;28;20108;-69
2023/06/30 11:09:13;;;;;;;4.28;3.03;;;27.20;96.70;;;;;;5015232;28;20045;-69
2023/06/30 11:11:48;;;;;;;3.05;2.70;;;27.40;96.70;;;;;;5017672;28;20041;-70
2023/06/30 11:14:32;;;;;;;4.28;3.00;;;27.60;96.70;;;;;;5022814;28;20049;-69
2023/06/30 11:17:06;;;;;;;4.22;2.92;;;27.80;96.70;;;;;;5021720;28;20045;-69
2023/06/30 11:19:36;;;;;;;6.60;3.13;;;28.00;96.70;;;;;;5014169;28;20046;-70
2023/06/30 11:22:32;;;;;;;4.15;2.85;;;28.00;96.70;;;;;;5022446;28;20041;-70
2023/06/30 11:25:03;;;;;;;4.50;3.10;;;28.10;96.70;;;;;;4991307;28;20067;-69
2023/06/30 11:27:32;;;;;;;3.47;3.15;;;28.40;96.70;;;;;;5004915;28;20060;-69
2023/06/30 11:30:01;;;;;;;5.75;3.60;;;28.10;96.70;;;;;;5004831;28;20053;-69
2023/06/30 11:32:32;;;;;;;3.58;3.00;;;28.10;96.70;;;;;;5005619;28;20407;-69
2023/06/30 11:35:07;;;;;;;4.35;3.30;;;28.00;96.70;;;;;;5026557;28;20673;-69
2023/06/30 11:37:36;;;;;;;4.10;2.77;;;28.10;96.70;;;;;;4995056;28;20050;-69
2023/06/30 11:40:06;;;;;;;3.65;3.17;;;28.40;96.70;;;;;;5016651;28;20147;-69
2023/06/30 11:42:39;;;;;;;5.05;3.53;;;28.50;96.70;;;;;;5028833;28;20065;-70
2023/06/30 11:45:08;;;;;;;3.40;2.92;;;28.20;96.70;;;;;;5012189;28;20137;-69
2023/06/30 11:47:44;;;;;;;4.25;3.65;;;28.40;96.70;;;;;;5000193;28;20093;-69
2023/06/30 11:50:14;;;;;;;3.80;3.22;;;28.40;96.70;;;;;;5002126;28;20596;-69
2023/06/30 11:52:43;;;;;;;4.28;3.05;;;28.30;96.70;;;;;;4995125;28;20049;-70
2023/06/30 11:55:12;;;;;;;4.78;3.17;;;28.30;96.70;;;;;;4994234;28;20613;-69
2023/06/30 11:57:41;;;;;;;4.28;3.25;;;28.40;96.70;;;;;;5011174;28;20060;-69
2023/06/30 12:00:11;;;;;;;3.83;3.30;;;28.60;96.70;;;;;;5029125;28;20057;-69
2023/06/30 12:02:59;;;;;;;3.90;2.95;;;29.00;96.70;;;;;;5014610;28;20402;-70
2023/06/30 12:05:27;;;;;;;4.28;3.47;;;29.20;96.70;;;;;;5029032;28;20050;-69
2023/06/30 12:08:17;;;;;;;4.43;3.60;;;29.30;96.70;;;;;;5008125;28;20057;-70
2023/06/30 12:10:45;;;;;;;5.10;3.55;;;29.20;96.70;;;;;;5011660;28;20128;-69
2023/06/30 12:13:13;;;;;;;3.60;3.30;;;29.10;96.70;;;;;;5011181;28;20037;-69
2023/06/30 12:15:42;;;;;;;4.65;3.25;;;29.10;96.70;;;;;;5011543;28;20049;-70
2023/06/30 12:18:12;;;;;;;4.65;3.65;;;29.00;96.70;;;;;;5010271;28;20042;-69
2023/06/30 12:20:43;;;;;;;4.80;2.90;;;29.00;96.70;;;;;;5026867;28;20045;-69
2023/06/30 12:23:11;;;;;;;5.05;3.72;;;29.10;96.70;;;;;;5027737;28;20506;-70
2023/06/30 12:25:39;;;;;;;4.57;3.35;;;29.40;96.70;;;;;;5023648;28;20037;-69
2023/06/30 12:28:09;;;;;;;5.50;4.15;;;29.60;96.70;;;;;;5028436;28;20048;-69
2023/06/30 12:30:53;;;;;;;4.35;3.35;;;29.70;96.70;;;;;;5028004;28;20045;-69
2023/06/30 12:33:23;;;;;;;5.97;3.40;;;29.80;96.70;;;;;;5027646;28;20478;-69
2023/06/30 12:35:51;;;;;;;5.57;4.00;;;30.00;96.70;;;;;;5006447;28;21122;-69
2023/06/30 12:38:19;;;;;;;4.28;3.78;;;30.20;96.70;;;;;;5026894;28;20069;-69
2023/06/30 12:40:46;;;;;;;5.35;3.60;;;30.10;96.70;;;;;;5029216;28;20095;-69
2023/06/30 12:43:16;;;;;;;6.05;4.07;;;30.10;96.70;;;;;;5028529;28;20232;-70
2023/06/30 12:45:44;;;;;;;6.00;4.50;;;29.80;96.70;;;;;;5024591;28;20046;-70
2023/06/30 12:48:11;;;;;;;7.32;4.28;;;29.70;96.70;;;;;;5024359;28;20053;-70
2023/06/30 12:50:41;;;;;;;6.47;4.32;;;29.60;96.70;;;;;;5000848;28;20045;-70
2023/06/30 12:53:09;;;;;;;4.78;3.95;;;29.70;96.70;;;;;;5025632;28;20497;-70
2023/06/30 12:55:37;;;;;;;6.07;4.13;;;29.60;96.70;;;;;;5004571;28;20532;-70
2023/06/30 12:58:05;;;;;;;6.32;4.07;;;29.80;96.70;;;;;;5024773;28;20053;-70
2023/06/30 13:00:33;;;;;;;4.70;3.88;;;30.00;96.70;;;;;;5007112;28;20045;-69
2023/06/30 13:03:00;;;;;;;6.72;4.20;;;30.30;96.70;;;;;;5007815;28;20396;-70
2023/06/30 13:05:29;;;;;;;4.57;3.92;;;30.20;96.70;;;;;;4995212;28;20522;-70
2023/06/30 13:07:58;;;;;;;5.40;3.92;;;30.40;96.70;;;;;;5025465;28;20049;-69
2023/06/30 13:10:26;;;;;;;5.22;4.30;;;30.30;96.70;;;;;;5025746;28;20391;-70
2023/06/30 13:12:55;;;;;;;6.03;4.68;;;30.20;96.70;;;;;;5007040;28;20056;-69
2023/06/30 13:15:26;;;;;;;6.88;4.30;;;30.30;96.70;;;;;;5008856;28;20405;-70
2023/06/30 13:17:54;;;;;;;7.63;4.97;;;31.00;96.70;;;;;;5004371;28;20049;-69
2023/06/30 13:20:22;;;;;;;5.53;4.22;;;30.70;96.70;;;;;;5020599;28;20053;-70
2023/06/30 13:22:50;;;;;;;7.00;4.93;;;30.50;96.70;;;;;;5025279;28;20128;-70
2023/06/30 13:25:39;;;;;;;5.25;4.50;;;30.30;96.70;;;;;;5014768;28;20042;-70
2023/06/30 13:28:07;;;;;;;5.07;4.30;;;30.50;96.70;;;;;;5024477;28;20517;-69
2023/06/30 13:30:35;;;;;;;5.57;5.00;;;30.70;96.70;;;;;;5023604;28;20057;-69
2023/06/30 13:33:04;;;;;;;6.35;4.95;;;30.40;96.70;;;;;;5016873;28;20438;-69
2023/06/30 13:35:33;;;;;;;6.53;4.82;;;30.60;96.70;;;;;;5004257;28;20072;-70
2023/06/30 13:38:01;;;;;;;7.03;4.47;;;30.90;96.70;;;;;;4990294;28;20096;-70
2023/06/30 13:40:29;;;;;;;6.45;4.50;;;31.20;96.70;;;;;;5006906;28;20584;-69
2023/06/30 13:42:58;;;;;;;8.35;5.32;;;31.40;96.70;;;;;;5024235;28;20490;-70
2023/06/30 13:45:26;;;;;;;6.70;5.38;;;30.90;96.70;;;;;;5000835;28;20042;-69
2023/06/30 13:47:54;;;;;;;7.38;5.70;;;30.90;96.70;;;;;;5021950;28;20088;-70
2023/06/30 13:50:23;;;;;;;7.32;5.63;;;30.70;96.70;;;;;;5005744;28;20055;-70
2023/06/30 13:52:51;;;;;;;7.20;5.90;;;30.00;96.70;;;;;;5016128;28;20045;-69
2023/06/30 13:55:18;;;;;;;7.05;6.10;;;29.30;96.70;;;;;;5020602;28;20033;-70
2023/06/30 13:57:46;;;;;;;7.07;5.40;;;28.90;96.70;;;;;;5019575;28;20099;-69
2023/06/30 14:00:16;;;;;;;6.80;4.93;;;29.10;96.70;;;;;;5020350;28;20064;-70
2023/06/30 14:02:44;;;;;;;5.85;3.70;;;28.80;96.70;;;;;;5006717;28;20433;-70
2023/06/30 14:05:11;;;;;;;8.63;4.53;;;28.20;96.70;;;;;;4989168;28;20077;-70
2023/06/30 14:07:39;;;;;;;7.00;4.65;;;28.30;96.70;;;;;;5024783;28;20088;-70
2023/06/30 14:10:08;;;;;;;6.38;4.45;;;28.50;96.70;;;;;;5024709;28;20073;-70
2023/06/30 14:12:35;;;;;;;6.22;4.43;;;29.10;96.70;;;;;;5006264;28;20049;-71
2023/06/30 14:15:03;;;;;;;6.68;4.60;;;29.20;96.70;;;;;;5017808;28;20041;-70
2023/06/30 14:17:33;;;;;;;7.03;4.93;;;29.40;96.70;;;;;;5023518;28;20438;-70
2023/06/30 14:20:03;;;;;;;7.53;5.00;;;30.00;96.70;;;;;;5018818;28;20037;-70
2023/06/30 14:22:31;;;;;;;10.88;5.70;;;30.20;96.70;;;;;;5015870;28;20064;-70
2023/06/30 14:24:58;;;;;;;6.90;5.00;;;30.20;96.70;;;;;;5000093;28;20041;-70
2023/06/30 14:27:26;;;;;;;7.00;5.90;;;30.40;96.70;;;;;;5005893;28;20045;-71
2023/06/30 14:29:54;;;;;;;6.63;5.47;;;30.80;96.70;;;;;;5004218;28;20093;-70
2023/06/30 14:32:25;;;;;;;7.78;6.07;;;31.20;96.70;;;;;;4997941;28;20049;-70
2023/06/30 14:34:54;;;;;;;8.15;5.78;;;31.60;96.70;;;;;;5005869;28;20073;-70
2023/06/30 14:37:22;;;;;;;7.82;5.45;;;31.60;96.70;;;;;;5006053;28;20411;-70
2023/06/30 14:39:50;;;;;;;8.80;5.97;;;31.90;96.70;;;;;;5022925;28;20157;-70
2023/06/30 14:42:18;;;;;;;10.50;6.60;;;32.40;96.70;;;;;;5017045;28;20042;-70
2023/06/30 14:44:59;;;;;;;9.10;6.35;;;32.60;96.70;;;;;;5023411;28;20123;-70
2023/06/30 14:47:27;;;;;;;8.60;6.32;;;32.70;96.70;;;;;;4997683;28;20049;-70
2023/06/30 14:49:57;;;;;;;8.15;5.85;;;32.30;96.70;;;;;;5004753;28;20088;-70
2023/06/30 14:52:25;;;;;;;8.85;6.70;;;32.10;96.70;;;;;;5006491;28;20048;-69
2023/06/30 14:54:53;;;;;;;7.78;6.53;;;32.10;96.70;;;;;;5019706;28;20088;-70
2023/06/30 14:57:21;;;;;;;9.70;6.97;;;32.40;96.70;;;;;;5018373;28;20041;-70
2023/06/30 14:59:48;;;;;;;9.20;6.50;;;32.20;96.70;;;;;;5005924;28;20147;-70
2023/06/30 15:02:17;;;;;;;7.78;5.88;;;32.20;96.70;;;;;;5006449;28;20053;-70
2023/06/30 15:04:45;;;;;;;8.02;5.70;;;32.30;96.70;;;;;;4989369;28;20037;-70
2023/06/30 15:07:15;;;;;;;7.78;6.10;;;32.70;96.70;;;;;;5023629;28;20265;-69
2023/06/30 15:09:43;;;;;;;10.13;6.85;;;32.80;96.70;;;;;;5004397;28;20050;-70
2023/06/30 15:12:10;;;;;;;7.40;5.80;;;33.00;96.70;;;;;;5023250;28;20045;-70
2023/06/30 15:14:38;;;;;;;9.13;6.65;;;33.10;96.70;;;;;;5023012;28;20410;-70
2023/06/30 15:17:06;;;;;;;8.23;6.68;;;33.20;96.70;;;;;;5006155;28;20042;-70
2023/06/30 15:19:34;;;;;;;8.98;6.75;;;33.30;96.70;;;;;;4998071;28;20394;-70
2023/06/30 15:22:02;;;;;;;10.23;6.85;;;33.20;96.70;;;;;;5005594;28;20055;-70
2023/06/30 15:24:32;;;;;;;11.70;7.20;;;33.10;96.70;;;;;;4997497;28;20050;-69
2023/06/30 15:27:00;;;;;;;9.75;7.00;;;33.00;96.70;;;;;;5004931;28;20113;-70
2023/06/30 15:29:29;;;;;;;10.68;7.75;;;32.40;96.70;;;;;;5022293;28;20598;-69